createdAt,value
2022-11-25T00:03:07.676Z,95699.05
2022-11-25T00:08:45.100Z,95701.64
2022-11-25T00:11:36.243Z,95704.25
2022-11-25T00:14:24.773Z,95713.13
2022-11-25T00:17:12.906Z,95706.72
2022-11-25T00:22:47.178Z,95715.73
2022-11-25T00:25:38.007Z,95713.92
2022-11-25T00:28:26.592Z,95710.66
2022-11-25T00:33:56.704Z,95703.06
2022-11-25T00:39:32.035Z,95704.16
2022-11-25T00:45:12.181Z,95725.26
2022-11-25T00:50:42.943Z,95734.55
2022-11-25T00:56:24.143Z,95713.78
2022-11-25T00:59:13.341Z,95714.11
2022-11-25T01:02:02.139Z,95705.38
2022-11-25T01:07:35.665Z,95717.32
2022-11-25T01:10:24.012Z,95715.72
2022-11-25T01:16:04.392Z,95716.23
2022-11-25T01:18:53.343Z,95720.02
2022-11-25T01:24:27.059Z,95721.59
2022-11-25T01:30:05.148Z,95722.86
2022-11-25T01:35:38.625Z,95717.11
2022-11-25T01:38:27.213Z,95730.85
2022-11-25T01:44:16.660Z,95722.94
2022-11-25T01:47:07.637Z,95731.26
2022-11-25T01:49:59.408Z,95735.64
2022-11-25T01:55:35.631Z,95729.28
2022-11-25T02:01:12.177Z,95721.59
2022-11-25T02:06:46.599Z,95716.45
2022-11-25T02:12:14.459Z,95706.44
2022-11-25T02:15:03.390Z,95702.12
2022-11-25T02:20:52.098Z,95692.57
2022-11-25T02:23:43.268Z,95697.20
2022-11-25T02:26:32.697Z,95702.24
2022-11-25T02:29:21.203Z,95702.74
2022-11-25T02:32:09.721Z,95704.24
2022-11-25T02:34:58.253Z,95705.05
2022-11-25T02:37:48.052Z,95706.44
2022-11-25T02:40:40.607Z,95704.84
2022-11-25T02:46:28.824Z,95701.95
2022-11-25T02:51:59.483Z,95705.09
2022-11-25T02:57:34.046Z,95715.09
2022-11-25T03:00:22.868Z,95714.06
2022-11-25T03:06:00.028Z,95718.89
2022-11-25T03:08:50.254Z,95713.94
2022-11-25T03:11:56.004Z,95716.76
2022-11-25T03:14:45.130Z,95721.89
2022-11-25T03:17:33.618Z,95714.00
2022-11-25T03:23:10.931Z,95703.30
2022-11-25T03:25:58.966Z,95702.61
2022-11-25T03:31:37.341Z,95705.61
2022-11-25T03:37:12.053Z,95697.16
2022-11-25T03:43:01.537Z,95708.80
2022-11-25T03:48:39.302Z,95719.51
2022-11-25T03:51:27.885Z,95713.34
2022-11-25T03:54:16.301Z,95712.81
2022-11-25T03:59:54.091Z,95715.05
2022-11-25T04:02:42.504Z,95718.59
2022-11-25T04:05:31.084Z,95722.86
2022-11-25T04:10:59.048Z,95717.87
2022-11-25T04:13:47.477Z,95719.67
2022-11-25T04:19:19.010Z,95722.70
2022-11-25T04:25:13.184Z,95724.61
2022-11-25T04:28:02.623Z,95724.86
2022-11-25T04:33:47.176Z,95728.78
2022-11-25T04:39:28.614Z,95725.59
2022-11-25T04:42:33.008Z,95723.15
2022-11-25T04:48:10.727Z,95736.86
2022-11-25T04:53:48.750Z,95740.87
2022-11-25T04:59:42.375Z,95734.05
2022-11-25T05:05:20.292Z,95729.08
2022-11-25T05:10:57.083Z,95731.46
2022-11-25T05:13:44.961Z,95730.96
2022-11-25T05:16:39.159Z,95738.32
2022-11-25T05:19:27.531Z,95736.98
2022-11-25T05:24:56.786Z,95740.42
2022-11-25T05:27:44.793Z,95749.38
2022-11-25T05:30:33.481Z,95750.25
2022-11-25T05:33:25.160Z,95753.86
2022-11-25T05:36:15.908Z,95751.66
2022-11-25T05:41:54.765Z,95765.50
2022-11-25T05:44:43.165Z,95762.87
2022-11-25T05:50:20.937Z,95759.41
2022-11-25T05:56:00.176Z,95748.39
2022-11-25T05:58:50.519Z,95759.16
2022-11-25T06:01:38.725Z,95759.88
2022-11-25T06:07:18.335Z,95774.59
2022-11-25T06:12:58.937Z,95779.12
2022-11-25T06:15:48.129Z,95779.12
2022-11-25T06:21:19.193Z,95778.27
2022-11-25T06:24:16.332Z,95783.51
2022-11-25T06:29:47.448Z,95775.30
2022-11-25T06:32:37.573Z,95773.52
2022-11-25T06:38:05.976Z,95781.28
2022-11-25T06:40:59.160Z,95765.54
2022-11-25T06:46:37.887Z,95783.38
2022-11-25T06:49:28.497Z,95777.31
2022-11-25T06:55:07.341Z,95789.45
2022-11-25T07:00:38.809Z,95796.66
2022-11-25T07:03:27.296Z,95804.86
2022-11-25T07:06:16.652Z,95806.20
2022-11-25T07:09:05.717Z,95814.03
2022-11-25T07:14:45.101Z,95803.84
2022-11-25T07:20:53.415Z,95813.23
2022-11-25T07:26:36.867Z,95830.36
2022-11-25T07:29:51.952Z,95837.34
2022-11-25T07:35:08.834Z,95841.67
2022-11-25T07:38:00.422Z,95846.62
2022-11-25T07:43:38.768Z,95852.83
2022-11-25T07:46:31.608Z,95859.56
2022-11-25T07:52:04.780Z,95860.00
2022-11-25T07:57:32.505Z,95858.42
2022-11-25T08:03:07.138Z,95861.14
2022-11-25T08:08:46.060Z,95859.91
2022-11-25T08:14:16.406Z,95864.95
2022-11-25T08:17:05.938Z,95869.66
2022-11-25T08:22:47.528Z,95871.02
2022-11-25T08:28:20.629Z,95880.09
2022-11-25T08:34:02.749Z,95896.75
2022-11-25T08:36:51.369Z,95898.16
2022-11-25T08:42:25.787Z,95907.45
2022-11-25T08:48:01.787Z,95911.88
2022-11-25T08:53:40.006Z,95923.56
2022-11-25T08:59:05.320Z,95918.37
2022-11-25T09:04:39.735Z,95925.06
2022-11-25T09:10:15.548Z,95932.56
2022-11-25T09:15:44.351Z,95938.39
2022-11-25T09:18:35.254Z,95938.21
2022-11-25T09:24:21.739Z,95954.98
2022-11-25T09:29:58.774Z,95966.52
2022-11-25T09:35:35.517Z,95969.47
2022-11-25T09:38:23.430Z,95976.95
2022-11-25T09:44:23.360Z,95988.18
2022-11-25T09:50:17.465Z,95988.10
2022-11-25T09:55:55.934Z,96002.89
2022-11-25T10:01:25.724Z,95999.72
2022-11-25T10:04:18.475Z,96003.39
2022-11-25T10:07:08.917Z,96011.42
2022-11-25T10:12:48.015Z,96008.00
2022-11-25T10:15:38.259Z,96008.48
2022-11-25T10:21:12.079Z,96012.47
2022-11-25T10:26:47.132Z,96003.88
2022-11-25T10:32:23.426Z,96010.31
2022-11-25T10:37:56.354Z,96009.44
2022-11-25T10:43:31.911Z,96004.66
2022-11-25T10:46:23.002Z,95998.54
2022-11-25T10:57:21.533Z,95981.58
2022-11-25T11:02:57.118Z,95976.61
2022-11-25T11:08:34.103Z,95951.45
2022-11-25T11:14:21.389Z,95951.30
2022-11-25T11:20:18.388Z,95960.94
2022-11-25T11:28:43.161Z,95948.42
2022-11-25T11:34:37.496Z,95947.63
2022-11-25T11:40:28.666Z,95942.75
2022-11-25T11:43:37.438Z,95944.94
2022-11-25T11:49:37.073Z,95934.42
2022-11-25T11:55:24.589Z,95933.99
2022-11-25T12:01:11.391Z,95942.23
2022-11-25T12:04:02.003Z,95944.10
2022-11-25T12:09:45.764Z,95949.16
2022-11-25T12:15:31.858Z,95958.41
2022-11-25T12:18:27.092Z,95967.11
2022-11-25T12:24:06.191Z,95962.33
2022-11-25T12:29:40.630Z,95966.95
2022-11-25T12:32:56.527Z,95960.84
2022-11-25T12:35:52.618Z,95958.27
2022-11-25T12:41:37.629Z,95964.10
2022-11-25T12:47:10.315Z,95972.97
2022-11-25T12:55:41.760Z,95989.82
2022-11-25T13:01:48.506Z,95995.33
2022-11-25T13:05:32.865Z,95996.53
2022-11-25T13:11:01.118Z,96005.86
2022-11-25T13:16:35.089Z,96021.22
2022-11-25T13:19:24.247Z,96018.03
2022-11-25T13:25:15.395Z,96027.70
2022-11-25T13:30:53.508Z,96033.58
2022-11-25T13:39:38.937Z,96047.75
2022-11-25T13:45:26.197Z,96060.27
2022-11-25T13:54:07.884Z,96068.42
2022-11-25T14:00:44.069Z,96072.40
2022-11-25T14:06:59.575Z,96075.22
2022-11-25T14:19:50.843Z,96099.11
2022-11-25T14:25:06.679Z,96107.05
2022-11-25T14:30:53.076Z,96105.45
2022-11-25T14:36:37.091Z,96109.51
2022-11-25T14:42:22.777Z,96114.13
2022-11-25T14:48:27.503Z,96114.23
2022-11-25T14:54:13.248Z,96119.89
2022-11-25T15:00:28.341Z,96128.84
2022-11-25T15:12:28.412Z,96149.70
2022-11-25T15:18:03.417Z,96156.64
2022-11-25T15:23:54.483Z,96171.31
2022-11-25T15:29:37.443Z,96172.80
2022-11-25T15:35:18.466Z,96183.59
2022-11-25T15:41:41.770Z,96190.09
2022-11-25T15:47:28.417Z,96198.55
2022-11-25T15:53:33.318Z,96211.08
2022-11-25T16:00:27.207Z,96218.37
2022-11-25T16:03:24.277Z,96220.22
2022-11-25T16:09:05.791Z,96223.86
2022-11-25T16:11:53.813Z,96227.51
2022-11-25T16:17:31.687Z,96240.38
2022-11-25T16:20:22.436Z,96244.05
2022-11-25T16:23:10.952Z,96243.93
2022-11-25T16:26:05.438Z,96253.58
2022-11-25T16:31:42.530Z,96266.05
2022-11-25T16:34:31.027Z,96270.05
2022-11-25T16:40:01.145Z,96275.89
2022-11-25T16:48:30.415Z,96286.00
2022-11-25T16:51:20.142Z,96280.71
2022-11-25T16:56:56.729Z,96305.15
2022-11-25T17:02:31.276Z,96306.00
2022-11-25T17:08:04.988Z,96308.87
2022-11-25T17:13:34.156Z,96318.20
2022-11-25T17:19:02.281Z,96332.53
2022-11-25T17:21:50.875Z,96332.13
2022-11-25T17:27:28.819Z,96331.88
2022-11-25T17:33:08.677Z,96346.21
2022-11-25T17:38:43.414Z,96341.53
2022-11-25T17:44:25.366Z,96360.63
2022-11-25T17:49:59.908Z,96372.13
2022-11-25T17:55:38.535Z,96383.16
2022-11-25T17:58:27.840Z,96388.46
2022-11-25T18:01:15.896Z,96393.02
2022-11-25T18:06:50.739Z,96396.89
2022-11-25T18:12:36.011Z,96408.86
2022-11-25T18:18:16.127Z,96410.87
2022-11-25T18:23:54.006Z,96421.21
2022-11-25T18:29:32.132Z,96431.95
2022-11-25T18:35:17.475Z,96426.68
2022-11-25T18:40:54.149Z,96434.28
2022-11-25T18:43:42.910Z,96440.64
2022-11-25T18:49:16.468Z,96453.86
2022-11-25T18:54:54.555Z,96456.92
2022-11-25T18:57:45.126Z,96462.08
2022-11-25T19:00:33.871Z,96471.48
2022-11-25T19:06:15.212Z,96480.05
2022-11-25T19:11:53.814Z,96476.50
2022-11-25T19:17:27.342Z,96484.95
2022-11-25T19:23:01.083Z,96489.31
2022-11-25T19:25:48.024Z,96489.42
2022-11-25T19:31:24.551Z,96493.11
2022-11-25T19:37:11.730Z,96501.84
2022-11-25T19:42:48.673Z,96515.69
2022-11-25T19:45:37.120Z,96528.44
2022-11-25T19:48:27.870Z,96524.83
2022-11-25T19:51:16.459Z,96528.54
2022-11-25T19:54:05.117Z,96540.50
2022-11-25T19:59:39.386Z,96542.56
2022-11-25T20:05:20.495Z,96555.20
2022-11-25T20:08:10.489Z,96561.10
2022-11-25T20:13:56.254Z,96566.78
2022-11-25T20:19:31.282Z,96572.02
2022-11-25T20:25:06.073Z,96581.02
2022-11-25T20:27:56.946Z,96585.96
2022-11-25T20:33:34.453Z,96594.58
2022-11-25T20:39:17.318Z,96587.23
2022-11-25T20:44:47.785Z,96595.79
2022-11-25T20:47:36.089Z,96595.81
2022-11-25T20:53:08.931Z,96606.86
2022-11-25T20:58:49.221Z,96624.33
2022-11-25T21:04:21.334Z,96621.55
2022-11-25T21:07:14.721Z,96622.14
2022-11-25T21:12:49.878Z,96622.32
2022-11-25T21:15:39.369Z,96632.16
2022-11-25T21:21:19.970Z,96626.66
2022-11-25T21:24:19.568Z,96637.27
2022-11-25T21:29:56.446Z,96643.26
2022-11-25T21:35:48.903Z,96651.60
2022-11-25T21:41:27.004Z,96656.75
2022-11-25T21:44:19.507Z,96653.44
2022-11-25T21:52:48.033Z,96654.25
2022-11-25T21:58:29.598Z,96664.09
2022-11-25T22:04:02.233Z,96660.05
2022-11-25T22:09:39.062Z,96666.48
2022-11-25T22:12:38.124Z,96675.56
2022-11-25T22:21:00.034Z,96671.02
2022-11-25T22:23:48.184Z,96673.38
2022-11-25T22:26:36.432Z,96674.41
2022-11-25T22:32:16.753Z,96670.17
2022-11-25T22:37:55.619Z,96672.35
2022-11-25T22:46:28.586Z,96681.94
2022-11-25T22:49:32.305Z,96685.83
2022-11-25T22:55:20.402Z,96689.66
2022-11-25T23:00:54.608Z,96696.42
2022-11-25T23:06:32.647Z,96702.56
2022-11-25T23:09:21.485Z,96706.95
2022-11-25T23:14:57.159Z,96706.34
2022-11-25T23:17:50.238Z,96706.82
2022-11-25T23:23:29.329Z,96710.54
2022-11-25T23:28:58.652Z,96715.97
2022-11-25T23:31:46.743Z,96722.61
2022-11-25T23:40:07.294Z,96726.70
2022-11-25T23:45:43.950Z,96728.05
2022-11-25T23:51:33.254Z,96730.78
2022-11-25T23:57:14.902Z,96735.52
